Frazee, Minnesota
Current Conditions -  °F | °C
As of 10:35 PM on Friday 24 Oct 2014 (Local Time) from KDTL Reporting Station
Clear Clear  
Wind Chill: 55°   Ceiling: Unl
Heat Index: 55°   Visibility: 10mi
Dew Point: 32°   Wind: 15mph
Humidity: 41%   Direction: 300°WNW
Pressure: 29.91"   Gusts: 20mph
Location:  46.73°N, 95.7°W
Report Text: KDTL 250335Z AUTO 30013G17KT 10SM CLR 13/00 A2991 RMK AO2
Loading
Personal Weather Stations






























Interactive Weather Map
Tropical Storm Tracking
New forecast layout! Learn more

10-Day Weather Forecast

Advertisements
Track Severe Weather on mobile